Time;durP1;ratioP1;P1;durP2;ratioP2;P2;SDS_P1;SDS_P2;PMS_P1;PMS_P2;Temp;Humidity;BMP_temperature;BMP_pressure;BME280_temperature;BME280_humidity;BME280_pressure;Samples;Min_cycle;Max_cycle;Signal;HPM_P1;HPM_P2
2021/04/24 00:01:17;;;;;;;15.57;5.50;;;;;;;;;;6178595;23;20223;-91
2021/04/24 00:04:21;;;;;;;18.87;5.37;;;;;;;;;;6196659;23;20231;-90
2021/04/24 00:07:25;;;;;;;12.10;4.83;;;;;;;;;;6179432;23;20167;-90
2021/04/24 00:10:30;;;;;;;15.07;5.00;;;;;;;;;;6178987;23;20694;-91
2021/04/24 00:13:36;;;;;;;17.10;5.47;;;;;;;;;;6175588;23;20176;-91
2021/04/24 00:16:41;;;;;;;16.33;5.67;;;;;;;;;;6176412;23;20161;-90
2021/04/24 00:19:45;;;;;;;23.30;5.80;;;;;;;;;;6193877;23;20164;-90
2021/04/24 00:22:50;;;;;;;14.63;5.50;;;;;;;;;;6175793;23;20171;-90
2021/04/24 00:25:54;;;;;;;13.10;5.37;;;;;;;;;;6191712;23;20215;-91
2021/04/24 00:28:59;;;;;;;17.53;5.33;;;;;;;;;;6192897;23;20155;-89
2021/04/24 00:32:04;;;;;;;11.47;5.90;;;;;;;;;;6174283;23;20303;-88
2021/04/24 00:35:10;;;;;;;23.10;6.00;;;;;;;;;;6192677;23;20184;-90
2021/04/24 00:38:14;;;;;;;16.67;5.73;;;;;;;;;;6177974;23;20184;-90
2021/04/24 00:41:18;;;;;;;14.83;5.43;;;;;;;;;;6195128;23;20176;-90
2021/04/24 00:44:24;;;;;;;17.30;5.70;;;;;;;;;;6177409;23;20175;-92
2021/04/24 00:47:28;;;;;;;14.23;5.70;;;;;;;;;;6194107;23;20164;-90
2021/04/24 00:50:36;;;;;;;12.97;5.53;;;;;;;;;;6177764;23;20171;-90
2021/04/24 00:53:40;;;;;;;21.03;5.90;;;;;;;;;;6177548;23;20171;-91
2021/04/24 00:56:46;;;;;;;17.03;6.43;;;;;;;;;;6178302;23;20299;-90
2021/04/24 00:59:51;;;;;;;24.97;10.23;;;;;;;;;;6177836;23;20180;-90
2021/04/24 01:02:57;;;;;;;21.47;5.37;;;;;;;;;;6194173;23;20176;-91
2021/04/24 01:06:02;;;;;;;13.37;5.70;;;;;;;;;;6178807;23;20501;-91
2021/04/24 01:09:07;;;;;;;20.80;6.20;;;;;;;;;;6176635;23;20164;-91
2021/04/24 01:12:12;;;;;;;17.67;6.03;;;;;;;;;;6178591;23;20167;-91
2021/04/24 01:15:18;;;;;;;16.57;6.03;;;;;;;;;;6178515;23;20163;-92
2021/04/24 01:18:23;;;;;;;12.83;5.33;;;;;;;;;;6193994;23;20223;-91
2021/04/24 01:21:28;;;;;;;13.53;5.27;;;;;;;;;;6164529;23;20225;-92
2021/04/24 01:24:33;;;;;;;16.23;5.77;;;;;;;;;;6164634;23;20196;-91
2021/04/24 01:27:38;;;;;;;20.47;6.60;;;;;;;;;;6163678;23;20172;-90
2021/04/24 01:30:44;;;;;;;17.57;6.23;;;;;;;;;;6165962;23;20236;-91
2021/04/24 01:33:48;;;;;;;16.80;5.73;;;;;;;;;;6164283;23;20192;-92
2021/04/24 01:36:55;;;;;;;28.60;7.30;;;;;;;;;;6164489;23;20173;-91
2021/04/24 01:40:01;;;;;;;20.43;6.30;;;;;;;;;;6165068;23;20245;-92
2021/04/24 01:43:06;;;;;;;20.63;6.47;;;;;;;;;;6163757;23;20172;-92
2021/04/24 01:46:13;;;;;;;22.53;7.63;;;;;;;;;;6163780;23;20164;-91
2021/04/24 01:49:17;;;;;;;22.47;7.90;;;;;;;;;;6164634;23;20168;-90
2021/04/24 01:52:22;;;;;;;23.70;7.80;;;;;;;;;;6164473;23;20500;-91
2021/04/24 01:55:30;;;;;;;22.83;8.53;;;;;;;;;;6165703;23;20176;-91
2021/04/24 01:58:34;;;;;;;19.87;7.63;;;;;;;;;;6165170;23;20173;-90
2021/04/24 02:01:39;;;;;;;23.47;7.57;;;;;;;;;;6162918;23;20172;-90
2021/04/24 02:04:44;;;;;;;21.33;7.33;;;;;;;;;;6165562;23;20149;-90
2021/04/24 02:07:56;;;;;;;20.43;7.50;;;;;;;;;;6165120;23;20171;-91
2021/04/24 02:11:02;;;;;;;20.53;7.13;;;;;;;;;;6165476;23;20259;-90
2021/04/24 02:14:06;;;;;;;20.67;6.53;;;;;;;;;;6165055;23;20164;-91
2021/04/24 02:17:12;;;;;;;18.80;6.97;;;;;;;;;;6165584;23;20193;-91
2021/04/24 02:20:17;;;;;;;24.37;6.90;;;;;;;;;;6163735;23;20216;-91
2021/04/24 02:23:21;;;;;;;16.23;6.00;;;;;;;;;;6147819;23;20193;-91
2021/04/24 02:26:27;;;;;;;19.40;7.03;;;;;;;;;;6148573;23;20675;-92
2021/04/24 02:29:32;;;;;;;23.57;7.37;;;;;;;;;;6166718;23;20173;-92
2021/04/24 02:32:37;;;;;;;23.13;7.63;;;;;;;;;;6166763;23;20265;-91
2021/04/24 02:35:44;;;;;;;15.80;6.10;;;;;;;;;;6164057;23;20183;-90
2021/04/24 02:38:50;;;;;;;24.10;7.10;;;;;;;;;;6148035;23;20165;-90
2021/04/24 02:41:55;;;;;;;17.40;6.50;;;;;;;;;;6164976;23;20236;-91
2021/04/24 02:45:05;;;;;;;18.17;5.77;;;;;;;;;;6148836;23;20177;-92
2021/04/24 02:48:09;;;;;;;18.80;6.53;;;;;;;;;;6150150;23;20176;-90
2021/04/24 02:51:14;;;;;;;16.13;5.57;;;;;;;;;;6147499;23;20191;-92
2021/04/24 02:54:18;;;;;;;14.53;5.90;;;;;;;;;;6147420;23;20152;-90
2021/04/24 02:57:24;;;;;;;14.30;5.70;;;;;;;;;;6147562;23;20597;-90
2021/04/24 03:00:29;;;;;;;15.03;6.43;;;;;;;;;;6148208;23;20184;-91
2021/04/24 03:03:33;;;;;;;16.73;5.70;;;;;;;;;;6148143;23;20943;-91
2021/04/24 03:06:38;;;;;;;16.60;6.13;;;;;;;;;;6147270;23;20173;-91
2021/04/24 03:09:42;;;;;;;17.00;6.53;;;;;;;;;;6148242;23;20412;-91
2021/04/24 03:12:48;;;;;;;14.70;6.27;;;;;;;;;;6165261;23;20192;-91
2021/04/24 03:15:52;;;;;;;16.60;6.27;;;;;;;;;;6148557;23;20164;-90
2021/04/24 03:18:56;;;;;;;17.00;6.27;;;;;;;;;;6149492;23;20188;-91
2021/04/24 03:22:00;;;;;;;15.73;6.03;;;;;;;;;;6170299;23;20203;-91
2021/04/24 03:25:05;;;;;;;18.63;6.20;;;;;;;;;;6180542;23;20192;-90
2021/04/24 03:28:12;;;;;;;18.87;6.80;;;;;;;;;;6179403;23;20168;-91
2021/04/24 03:31:17;;;;;;;15.27;6.20;;;;;;;;;;6179392;23;20212;-90
2021/04/24 03:34:22;;;;;;;16.83;6.30;;;;;;;;;;6181067;23;20172;-90
2021/04/24 03:37:26;;;;;;;17.17;6.97;;;;;;;;;;6182336;23;20215;-90
2021/04/24 03:40:31;;;;;;;15.37;5.83;;;;;;;;;;6181041;23;20264;-91
2021/04/24 03:43:37;;;;;;;15.97;6.17;;;;;;;;;;6181645;23;20176;-89
2021/04/24 03:46:41;;;;;;;19.20;6.40;;;;;;;;;;6180724;23;20219;-91
2021/04/24 03:49:45;;;;;;;20.43;6.77;;;;;;;;;;6181864;23;20203;-91
2021/04/24 03:52:50;;;;;;;14.00;6.17;;;;;;;;;;6179919;23;20219;-91
2021/04/24 03:55:55;;;;;;;14.23;6.00;;;;;;;;;;6177907;23;20200;-90
2021/04/24 03:59:00;;;;;;;14.83;6.63;;;;;;;;;;6179009;23;20172;-90
2021/04/24 04:02:05;;;;;;;18.27;7.30;;;;;;;;;;6177813;23;20176;-92
2021/04/24 04:05:10;;;;;;;16.63;6.70;;;;;;;;;;6177982;23;20627;-90
2021/04/24 04:08:15;;;;;;;15.23;5.67;;;;;;;;;;6182003;23;20268;-90
2021/04/24 04:11:20;;;;;;;16.43;6.50;;;;;;;;;;6180896;23;20195;-90
2021/04/24 04:14:26;;;;;;;11.33;5.70;;;;;;;;;;6180252;23;20172;-91
2021/04/24 04:17:30;;;;;;;18.47;5.77;;;;;;;;;;6181582;23;20164;-90
2021/04/24 04:20:35;;;;;;;15.87;6.10;;;;;;;;;;6177941;23;20502;-90
2021/04/24 04:23:40;;;;;;;16.97;6.57;;;;;;;;;;6194691;23;20192;-90
2021/04/24 04:26:44;;;;;;;16.03;6.37;;;;;;;;;;6198896;23;20287;-89
2021/04/24 04:29:50;;;;;;;18.53;7.37;;;;;;;;;;6197716;23;20184;-90
2021/04/24 04:32:55;;;;;;;20.73;7.53;;;;;;;;;;6179568;23;20215;-91
2021/04/24 04:36:03;;;;;;;16.70;6.53;;;;;;;;;;6182634;23;20187;-90
2021/04/24 04:39:08;;;;;;;15.77;6.23;;;;;;;;;;6196892;23;20168;-90
2021/04/24 04:42:13;;;;;;;18.83;6.87;;;;;;;;;;6181361;23;20164;-90
2021/04/24 04:45:19;;;;;;;13.47;6.13;;;;;;;;;;6180007;23;20167;-90
2021/04/24 04:48:23;;;;;;;20.97;6.50;;;;;;;;;;6181989;23;20152;-91
2021/04/24 04:51:28;;;;;;;18.50;6.20;;;;;;;;;;6182979;23;20695;-90
2021/04/24 04:54:32;;;;;;;16.03;6.03;;;;;;;;;;6181606;23;20172;-88
2021/04/24 04:57:37;;;;;;;14.50;6.10;;;;;;;;;;6180923;23;20174;-90
2021/04/24 05:00:42;;;;;;;17.73;6.00;;;;;;;;;;6198695;23;20184;-89
2021/04/24 05:03:47;;;;;;;22.47;6.67;;;;;;;;;;6182873;23;20198;-89
2021/04/24 05:06:52;;;;;;;15.97;6.03;;;;;;;;;;6182225;23;20171;-90
2021/04/24 05:09:57;;;;;;;13.53;5.87;;;;;;;;;;6181984;23;20186;-90
2021/04/24 05:13:02;;;;;;;14.63;6.10;;;;;;;;;;6198021;23;20196;-89
2021/04/24 05:16:08;;;;;;;17.20;5.80;;;;;;;;;;6181699;23;20156;-89
2021/04/24 05:19:13;;;;;;;14.30;5.77;;;;;;;;;;6179270;23;20227;-91
2021/04/24 05:22:18;;;;;;;14.70;5.67;;;;;;;;;;6184011;23;20195;-91
2021/04/24 05:25:22;;;;;;;15.77;5.83;;;;;;;;;;6167546;23;20172;-90
2021/04/24 05:28:27;;;;;;;13.23;5.63;;;;;;;;;;6167081;23;20193;-91
2021/04/24 05:31:33;;;;;;;14.53;5.53;;;;;;;;;;6166133;23;20179;-88
2021/04/24 05:34:38;;;;;;;18.20;6.60;;;;;;;;;;6168627;23;20176;-89
2021/04/24 05:37:43;;;;;;;18.47;5.50;;;;;;;;;;6169774;23;20168;-90
2021/04/24 05:40:47;;;;;;;13.80;5.80;;;;;;;;;;6168790;23;20512;-89
2021/04/24 05:43:53;;;;;;;12.10;5.00;;;;;;;;;;6167625;23;20172;-91
2021/04/24 05:46:59;;;;;;;13.07;5.70;;;;;;;;;;6169277;23;20157;-89
2021/04/24 05:50:04;;;;;;;21.83;5.80;;;;;;;;;;6168620;23;20169;-90
2021/04/24 05:53:09;;;;;;;16.03;6.00;;;;;;;;;;6164823;23;20615;-91
2021/04/24 05:56:14;;;;;;;15.37;6.50;;;;;;;;;;6168060;23;20177;-90
2021/04/24 05:59:18;;;;;;;11.83;5.77;;;;;;;;;;6168693;23;20171;-91
2021/04/24 06:02:23;;;;;;;13.30;5.23;;;;;;;;;;6167013;23;20192;-90
2021/04/24 06:05:29;;;;;;;11.90;5.27;;;;;;;;;;6169231;23;20197;-91
2021/04/24 06:08:34;;;;;;;12.47;5.87;;;;;;;;;;6168037;23;20189;-90
2021/04/24 06:11:39;;;;;;;12.43;5.17;;;;;;;;;;6168064;23;20559;-90
2021/04/24 06:14:43;;;;;;;9.70;4.90;;;;;;;;;;6167028;23;20216;-90
2021/04/24 06:17:50;;;;;;;12.80;5.47;;;;;;;;;;6165234;23;20172;-92
2021/04/24 06:20:54;;;;;;;14.07;5.67;;;;;;;;;;6174088;23;20298;-90
2021/04/24 06:23:58;;;;;;;12.73;5.20;;;;;;;;;;6175900;23;20163;-92
2021/04/24 06:27:03;;;;;;;11.98;5.75;;;;;;;;;;6179268;23;20175;-91
2021/04/24 06:30:08;;;;;;;15.05;6.57;;;;;;;;;;6182203;23;20167;-91
2021/04/24 06:33:16;;;;;;;13.15;5.90;;;;;;;;;;6180707;23;20180;-92
2021/04/24 06:36:21;;;;;;;18.40;8.13;;;;;;;;;;6178568;23;20273;-91
2021/04/24 06:39:25;;;;;;;15.70;6.82;;;;;;;;;;6179091;23;20163;-91
2021/04/24 06:42:30;;;;;;;12.82;6.88;;;;;;;;;;6178847;23;20546;-91
2021/04/24 06:45:35;;;;;;;18.42;7.18;;;;;;;;;;6180456;23;20217;-89
2021/04/24 06:48:40;;;;;;;16.08;5.93;;;;;;;;;;6195834;23;20207;-92
2021/04/24 06:51:44;;;;;;;11.30;5.57;;;;;;;;;;6193954;23;20195;-90
2021/04/24 06:54:49;;;;;;;14.77;6.50;;;;;;;;;;6177900;23;20418;-91
2021/04/24 06:57:53;;;;;;;13.00;7.07;;;;;;;;;;6203829;23;20171;-91
2021/04/24 07:00:58;;;;;;;21.17;6.47;;;;;;;;;;6184045;23;20203;-92
2021/04/24 07:04:04;;;;;;;15.55;9.48;;;;;;;;;;6186726;23;20176;-92
2021/04/24 07:07:09;;;;;;;16.35;6.47;;;;;;;;;;6185354;23;20489;-90
2021/04/24 07:10:16;;;;;;;14.50;6.10;;;;;;;;;;6186113;23;20188;-91
2021/04/24 07:13:21;;;;;;;19.33;6.70;;;;;;;;;;6182124;23;20607;-89
2021/04/24 07:16:25;;;;;;;15.80;7.18;;;;;;;;;;6181581;23;20175;-91
2021/04/24 07:19:31;;;;;;;12.55;6.38;;;;;;;;;;6180950;23;20160;-91
2021/04/24 07:22:36;;;;;;;14.23;7.32;;;;;;;;;;6169167;23;20223;-91
2021/04/24 07:25:40;;;;;;;16.77;7.85;;;;;;;;;;6171872;23;20175;-90
2021/04/24 07:28:45;;;;;;;16.00;7.65;;;;;;;;;;6167349;23;20499;-91
2021/04/24 07:31:50;;;;;;;16.35;7.70;;;;;;;;;;6166094;23;20801;-91
2021/04/24 07:34:56;;;;;;;16.45;7.50;;;;;;;;;;6167285;23;20185;-90
2021/04/24 07:38:01;;;;;;;14.13;7.45;;;;;;;;;;6167602;23;20263;-91
2021/04/24 07:41:05;;;;;;;18.60;7.00;;;;;;;;;;6166319;23;20236;-91
2021/04/24 07:44:09;;;;;;;16.98;7.32;;;;;;;;;;6171207;23;20189;-91
2021/04/24 07:47:14;;;;;;;20.00;7.75;;;;;;;;;;6170019;23;20172;-91
2021/04/24 07:50:20;;;;;;;15.75;7.15;;;;;;;;;;6170790;23;20172;-90
2021/04/24 07:53:25;;;;;;;25.55;8.10;;;;;;;;;;6172554;23;20152;-90
2021/04/24 07:56:29;;;;;;;18.75;7.60;;;;;;;;;;6168926;23;20164;-92
2021/04/24 07:59:33;;;;;;;20.02;9.13;;;;;;;;;;6170400;23;20176;-91
2021/04/24 08:02:38;;;;;;;15.43;7.53;;;;;;;;;;6172688;23;20172;-90
2021/04/24 08:05:43;;;;;;;15.95;8.30;;;;;;;;;;6171257;23;20543;-92
2021/04/24 08:08:50;;;;;;;13.15;7.65;;;;;;;;;;6170243;23;20177;-91
2021/04/24 08:11:56;;;;;;;18.75;8.10;;;;;;;;;;6170518;23;20183;-91
2021/04/24 08:15:01;;;;;;;15.73;7.57;;;;;;;;;;6170658;23;20177;-91
2021/04/24 08:18:06;;;;;;;28.35;9.68;;;;;;;;;;6169196;23;20172;-91
2021/04/24 08:21:12;;;;;;;16.63;8.13;;;;;;;;;;6181536;23;20207;-94
2021/04/24 08:24:16;;;;;;;13.13;8.07;;;;;;;;;;6181746;23;20189;-91
2021/04/24 08:27:21;;;;;;;14.30;7.93;;;;;;;;;;6181136;23;20525;-90
2021/04/24 08:30:30;;;;;;;16.92;7.78;;;;;;;;;;6182422;23;20167;-92
2021/04/24 08:33:35;;;;;;;19.15;8.73;;;;;;;;;;6181382;23;20176;-91
2021/04/24 08:36:41;;;;;;;13.38;7.85;;;;;;;;;;6181158;23;20155;-90
2021/04/24 08:39:45;;;;;;;18.80;8.00;;;;;;;;;;6181231;23;20172;-90
2021/04/24 08:42:50;;;;;;;23.75;9.07;;;;;;;;;;6181232;23;20171;-90
2021/04/24 08:45:55;;;;;;;16.80;8.15;;;;;;;;;;6183146;23;20199;-90
2021/04/24 08:49:01;;;;;;;20.17;7.78;;;;;;;;;;6182036;23;20207;-91
2021/04/24 08:52:06;;;;;;;18.17;8.05;;;;;;;;;;6182855;23;20192;-93
2021/04/24 08:55:14;;;;;;;16.38;7.50;;;;;;;;;;6200365;23;20607;-90
2021/04/24 08:58:20;;;;;;;14.52;7.97;;;;;;;;;;6183316;23;20175;-92
2021/04/24 09:01:25;;;;;;;16.65;8.02;;;;;;;;;;6182125;23;20163;-91
2021/04/24 09:04:29;;;;;;;22.00;8.05;;;;;;;;;;6183733;23;20155;-93
2021/04/24 09:07:34;;;;;;;16.35;7.93;;;;;;;;;;6198961;23;20380;-93
2021/04/24 09:10:42;;;;;;;16.25;8.02;;;;;;;;;;6182779;23;20179;-91
2021/04/24 09:13:57;;;;;;;15.50;8.13;;;;;;;;;;6184295;23;20243;-91
2021/04/24 09:17:02;;;;;;;15.07;7.50;;;;;;;;;;6182051;23;20187;-91
2021/04/24 09:20:07;;;;;;;14.95;7.85;;;;;;;;;;6183509;23;20218;-92
2021/04/24 09:23:14;;;;;;;15.25;7.70;;;;;;;;;;6151746;23;20853;-90
2021/04/24 09:26:21;;;;;;;16.90;7.80;;;;;;;;;;6156091;23;20177;-91
2021/04/24 09:29:28;;;;;;;16.17;7.63;;;;;;;;;;6170014;23;20165;-92
2021/04/24 09:32:32;;;;;;;15.57;7.53;;;;;;;;;;6170363;23;20212;-93
2021/04/24 09:35:43;;;;;;;15.27;8.18;;;;;;;;;;6170700;23;20197;-90
2021/04/24 09:38:50;;;;;;;16.05;7.72;;;;;;;;;;6167955;23;20192;-91
2021/04/24 09:41:54;;;;;;;18.27;8.27;;;;;;;;;;6170658;23;20189;-91
2021/04/24 09:44:59;;;;;;;16.38;7.95;;;;;;;;;;6151218;23;20215;-92
2021/04/24 09:48:04;;;;;;;13.70;7.72;;;;;;;;;;6170417;23;20177;-94
2021/04/24 09:51:13;;;;;;;15.85;8.10;;;;;;;;;;6168736;23;20248;-91
2021/04/24 09:54:20;;;;;;;15.68;7.72;;;;;;;;;;6170792;23;20176;-92
2021/04/24 09:57:28;;;;;;;16.85;7.55;;;;;;;;;;6172485;23;20155;-92
2021/04/24 10:00:33;;;;;;;15.80;7.82;;;;;;;;;;6172849;23;20248;-93
2021/04/24 10:03:38;;;;;;;19.23;8.15;;;;;;;;;;6170194;23;20308;-92
2021/04/24 10:06:44;;;;;;;18.33;7.82;;;;;;;;;;6154381;23;20215;-91
2021/04/24 10:09:50;;;;;;;14.00;6.72;;;;;;;;;;6172234;23;20209;-90
2021/04/24 10:12:55;;;;;;;13.77;7.22;;;;;;;;;;6170651;23;20213;-90
2021/04/24 10:16:00;;;;;;;13.30;7.10;;;;;;;;;;6172712;23;20235;-90
2021/04/24 10:19:07;;;;;;;17.73;7.15;;;;;;;;;;6172111;23;20168;-92
2021/04/24 10:22:12;;;;;;;12.82;6.22;;;;;;;;;;6199166;23;20211;-91
2021/04/24 10:25:19;;;;;;;16.38;7.47;;;;;;;;;;6181692;23;20390;-91
2021/04/24 10:28:24;;;;;;;17.55;7.60;;;;;;;;;;6182242;23;20172;-92
2021/04/24 10:31:29;;;;;;;15.70;7.40;;;;;;;;;;6182668;23;20155;-90
2021/04/24 10:34:33;;;;;;;18.55;7.32;;;;;;;;;;6199851;23;20171;-92
2021/04/24 10:37:38;;;;;;;16.02;6.55;;;;;;;;;;6201831;23;20172;-91
2021/04/24 10:40:47;;;;;;;12.80;6.38;;;;;;;;;;6182261;23;20168;-90
2021/04/24 10:43:57;;;;;;;14.38;6.97;;;;;;;;;;6180779;23;20490;-90
2021/04/24 10:47:02;;;;;;;17.08;6.82;;;;;;;;;;6181131;23;20172;-90
2021/04/24 10:50:07;;;;;;;11.95;6.03;;;;;;;;;;6182099;23;20188;-92
2021/04/24 10:53:19;;;;;;;13.43;6.80;;;;;;;;;;6182142;23;20191;-93
2021/04/24 10:56:31;;;;;;;13.77;5.78;;;;;;;;;;6181993;23;20168;-92
2021/04/24 10:59:53;;;;;;;13.45;4.82;;;;;;;;;;6178219;23;20221;-91
2021/04/24 11:02:59;;;;;;;10.60;5.18;;;;;;;;;;6180587;23;20260;-92
2021/04/24 11:06:07;;;;;;;15.43;6.30;;;;;;;;;;6181315;23;20505;-93
2021/04/24 11:09:21;;;;;;;19.75;6.18;;;;;;;;;;6184656;23;20199;-93
2021/04/24 11:12:26;;;;;;;15.15;6.00;;;;;;;;;;6176317;23;20171;-93
2021/04/24 11:15:32;;;;;;;13.65;6.30;;;;;;;;;;6181264;23;20159;-90
2021/04/24 11:18:38;;;;;;;16.58;6.07;;;;;;;;;;6180256;23;20211;-92
2021/04/24 11:21:42;;;;;;;18.15;6.35;;;;;;;;;;6181180;23;20258;-91
2021/04/24 11:24:47;;;;;;;16.88;6.50;;;;;;;;;;6178789;23;20176;-92
2021/04/24 11:28:05;;;;;;;12.77;6.45;;;;;;;;;;6181918;23;20187;-91
2021/04/24 11:31:10;;;;;;;13.98;6.20;;;;;;;;;;6180492;23;20175;-91
2021/04/24 11:34:31;;;;;;;13.38;6.47;;;;;;;;;;6181298;23;20215;-93
2021/04/24 11:37:37;;;;;;;12.43;6.68;;;;;;;;;;6181586;23;20180;-92
2021/04/24 11:40:42;;;;;;;11.45;6.47;;;;;;;;;;6183725;23;20179;-92
2021/04/24 11:43:47;;;;;;;10.82;5.97;;;;;;;;;;6200396;23;20188;-93
2021/04/24 11:46:52;;;;;;;9.48;6.00;;;;;;;;;;6184979;23;20208;-92
2021/04/24 11:49:59;;;;;;;12.77;6.30;;;;;;;;;;6201678;23;20219;-92
2021/04/24 11:53:04;;;;;;;12.20;5.82;;;;;;;;;;6184091;23;20231;-92
2021/04/24 11:56:13;;;;;;;12.52;6.22;;;;;;;;;;6183802;23;20164;-91
2021/04/24 11:59:22;;;;;;;14.05;5.90;;;;;;;;;;6165619;23;20167;-90
2021/04/24 12:02:28;;;;;;;12.43;6.05;;;;;;;;;;6181014;23;20248;-91
2021/04/24 12:05:41;;;;;;;15.75;7.20;;;;;;;;;;6179308;23;20180;-91
2021/04/24 12:08:45;;;;;;;12.07;5.63;;;;;;;;;;6181736;23;20179;-92
2021/04/24 12:11:54;;;;;;;11.95;6.63;;;;;;;;;;6180153;23;20216;-92
2021/04/24 12:15:05;;;;;;;10.27;5.18;;;;;;;;;;6180993;23;20175;-91
2021/04/24 12:18:10;;;;;;;13.63;6.05;;;;;;;;;;6179061;23;20168;-91
2021/04/24 12:21:25;;;;;;;11.50;5.65;;;;;;;;;;6181713;23;20225;-91
2021/04/24 12:24:30;;;;;;;8.98;4.90;;;;;;;;;;6180580;23;20216;-92
2021/04/24 12:27:39;;;;;;;9.45;4.63;;;;;;;;;;6182465;23;20179;-92
2021/04/24 12:30:45;;;;;;;8.30;4.38;;;;;;;;;;6183614;23;20172;-92
2021/04/24 12:33:50;;;;;;;10.63;4.00;;;;;;;;;;6181279;23;20223;-91
2021/04/24 12:36:54;;;;;;;10.05;4.63;;;;;;;;;;6185703;23;20163;-91
2021/04/24 12:40:07;;;;;;;8.25;4.28;;;;;;;;;;6183813;23;20227;-92
2021/04/24 12:43:13;;;;;;;12.02;4.45;;;;;;;;;;6202805;23;20198;-93
2021/04/24 12:46:19;;;;;;;9.02;4.22;;;;;;;;;;6183673;23;20183;-92
2021/04/24 12:49:24;;;;;;;6.68;3.95;;;;;;;;;;6181669;23;20168;-92
2021/04/24 12:52:41;;;;;;;11.60;6.40;;;;;;;;;;6182157;23;20187;-92
2021/04/24 12:55:46;;;;;;;9.73;4.85;;;;;;;;;;6183396;23;20167;-91
2021/04/24 12:58:54;;;;;;;8.98;4.55;;;;;;;;;;6188995;23;20162;-89
2021/04/24 13:02:00;;;;;;;8.32;3.90;;;;;;;;;;6183534;23;20195;-91
2021/04/24 13:05:05;;;;;;;8.90;5.30;;;;;;;;;;6185190;23;20163;-91
2021/04/24 13:08:12;;;;;;;11.27;4.72;;;;;;;;;;6183785;23;20192;-89
2021/04/24 13:11:17;;;;;;;14.05;5.60;;;;;;;;;;6186841;23;20175;-90
2021/04/24 13:14:22;;;;;;;11.27;5.40;;;;;;;;;;6184017;23;20167;-91
2021/04/24 13:17:29;;;;;;;11.30;5.82;;;;;;;;;;6182981;23;20184;-90
2021/04/24 13:20:33;;;;;;;12.40;5.88;;;;;;;;;;6184826;23;20634;-91
2021/04/24 13:23:38;;;;;;;8.88;5.25;;;;;;;;;;6182785;23;20164;-89
2021/04/24 13:26:43;;;;;;;12.23;5.70;;;;;;;;;;6182723;23;20147;-90
2021/04/24 13:29:48;;;;;;;9.50;4.82;;;;;;;;;;6188087;23;20167;-92
2021/04/24 13:32:58;;;;;;;10.70;4.90;;;;;;;;;;6188088;23;20200;-90
2021/04/24 13:36:05;;;;;;;7.55;4.40;;;;;;;;;;6184872;23;20172;-91
2021/04/24 13:39:09;;;;;;;8.63;5.30;;;;;;;;;;6186653;23;20195;-91
2021/04/24 13:42:17;;;;;;;10.65;4.60;;;;;;;;;;6185385;23;20200;-91
2021/04/24 13:45:22;;;;;;;9.43;5.25;;;;;;;;;;6184937;23;20247;-91
2021/04/24 13:48:28;;;;;;;8.48;5.03;;;;;;;;;;6185386;23;20151;-92
2021/04/24 13:51:33;;;;;;;12.68;5.78;;;;;;;;;;6184980;23;20195;-90
2021/04/24 13:54:39;;;;;;;9.68;4.80;;;;;;;;;;6187499;23;20168;-93
2021/04/24 13:57:45;;;;;;;12.07;5.13;;;;;;;;;;6188771;23;20160;-93
2021/04/24 14:00:49;;;;;;;10.07;5.00;;;;;;;;;;6188793;23;20156;-93
2021/04/24 14:03:56;;;;;;;9.48;5.47;;;;;;;;;;6188343;23;20188;-92
2021/04/24 14:07:00;;;;;;;9.85;5.07;;;;;;;;;;6189945;23;20329;-93
2021/04/24 14:10:06;;;;;;;9.40;5.30;;;;;;;;;;6188683;23;20172;-94
2021/04/24 14:13:11;;;;;;;11.23;5.55;;;;;;;;;;6206991;23;20195;-94
2021/04/24 14:16:17;;;;;;;12.10;5.45;;;;;;;;;;6189318;23;20224;-93
2021/04/24 14:19:25;;;;;;;10.27;5.22;;;;;;;;;;6188391;23;20200;-91
2021/04/24 14:22:30;;;;;;;11.73;5.70;;;;;;;;;;6174600;23;20216;-91
2021/04/24 14:25:36;;;;;;;13.82;6.22;;;;;;;;;;6172125;23;20168;-90
2021/04/24 14:28:40;;;;;;;8.65;4.53;;;;;;;;;;6169439;23;20667;-90
2021/04/24 14:31:45;;;;;;;9.70;4.55;;;;;;;;;;6170882;23;20213;-90
2021/04/24 14:34:51;;;;;;;7.85;4.30;;;;;;;;;;6171161;23;20176;-91
2021/04/24 14:37:56;;;;;;;14.30;5.93;;;;;;;;;;6171900;23;20164;-92
2021/04/24 14:41:00;;;;;;;9.15;5.40;;;;;;;;;;6172252;23;20200;-92
2021/04/24 14:44:06;;;;;;;8.55;4.80;;;;;;;;;;6172231;23;20217;-91
2021/04/24 14:47:10;;;;;;;7.25;4.22;;;;;;;;;;6172994;23;20264;-93
2021/04/24 14:50:16;;;;;;;8.27;4.07;;;;;;;;;;6172804;23;20196;-92
2021/04/24 14:53:22;;;;;;;6.78;4.10;;;;;;;;;;6171542;23;20168;-92
2021/04/24 14:56:27;;;;;;;8.10;4.28;;;;;;;;;;6171419;23;20232;-94
2021/04/24 14:59:31;;;;;;;7.88;4.18;;;;;;;;;;6171515;23;20168;-91
2021/04/24 15:02:36;;;;;;;6.72;3.60;;;;;;;;;;6171280;23;20199;-91
2021/04/24 15:05:42;;;;;;;6.38;3.92;;;;;;;;;;6169245;23;20168;-92
2021/04/24 15:08:47;;;;;;;11.70;3.65;;;;;;;;;;6170352;23;20173;-91
2021/04/24 15:11:51;;;;;;;7.68;3.88;;;;;;;;;;6169630;23;20173;-91
2021/04/24 15:14:56;;;;;;;8.80;4.20;;;;;;;;;;6169758;23;20184;-91
2021/04/24 15:18:01;;;;;;;7.05;3.83;;;;;;;;;;6170759;23;20176;-91
2021/04/24 15:21:08;;;;;;;7.65;4.15;;;;;;;;;;6179842;23;20211;-92
2021/04/24 15:24:15;;;;;;;7.47;3.70;;;;;;;;;;6180935;23;20171;-90
2021/04/24 15:27:20;;;;;;;11.50;5.10;;;;;;;;;;6183074;23;20168;-91
2021/04/24 15:30:27;;;;;;;10.70;4.40;;;;;;;;;;6184692;23;20602;-91
2021/04/24 15:33:31;;;;;;;12.25;5.28;;;;;;;;;;6180478;23;20231;-92
2021/04/24 15:36:37;;;;;;;12.27;5.10;;;;;;;;;;6180955;23;20163;-91
2021/04/24 15:39:50;;;;;;;15.25;5.20;;;;;;;;;;6181125;23;20280;-90
2021/04/24 15:42:54;;;;;;;11.48;4.70;;;;;;;;;;6181112;23;20211;-88
2021/04/24 15:45:59;;;;;;;10.98;5.03;;;;;;;;;;6185301;23;20234;-91
2021/04/24 15:49:04;;;;;;;13.38;5.45;;;;;;;;;;6184315;23;20196;-92
2021/04/24 15:52:11;;;;;;;14.25;5.75;;;;;;;;;;6183929;23;20172;-92
2021/04/24 15:55:16;;;;;;;11.05;5.22;;;;;;;;;;6183186;23;20164;-91
2021/04/24 15:58:23;;;;;;;11.20;4.97;;;;;;;;;;6182179;23;20175;-90
2021/04/24 16:01:28;;;;;;;9.27;4.97;;;;;;;;;;6184691;23;20198;-91
2021/04/24 16:04:32;;;;;;;11.15;5.60;;;;;;;;;;6185008;23;20212;-93
2021/04/24 16:07:38;;;;;;;15.02;4.95;;;;;;;;;;6182379;23;20175;-90
2021/04/24 16:10:42;;;;;;;12.30;5.15;;;;;;;;;;6182207;23;20242;-91
2021/04/24 16:13:46;;;;;;;8.52;4.63;;;;;;;;;;6180762;23;20191;-90
2021/04/24 16:16:51;;;;;;;31.20;6.70;;;;;;;;;;6182689;23;20163;-91
2021/04/24 16:19:56;;;;;;;13.00;5.38;;;;;;;;;;6180042;23;20253;-90
2021/04/24 16:23:02;;;;;;;9.88;4.53;;;;;;;;;;6181811;23;20194;-91
2021/04/24 16:26:10;;;;;;;10.35;4.22;;;;;;;;;;6180985;23;20176;-89
2021/04/24 16:29:17;;;;;;;12.20;4.38;;;;;;;;;;6181224;23;20224;-90
2021/04/24 16:32:21;;;;;;;7.45;4.10;;;;;;;;;;6183040;23;20216;-91
2021/04/24 16:35:26;;;;;;;12.95;4.45;;;;;;;;;;6184470;23;20176;-89
2021/04/24 16:38:32;;;;;;;15.70;7.35;;;;;;;;;;6182477;23;20195;-91
2021/04/24 16:41:36;;;;;;;8.57;4.53;;;;;;;;;;6182275;23;20290;-90
2021/04/24 16:44:41;;;;;;;13.75;5.82;;;;;;;;;;6182736;23;20173;-92
2021/04/24 16:47:46;;;;;;;8.85;4.55;;;;;;;;;;6182826;23;20176;-92
2021/04/24 16:50:51;;;;;;;10.43;4.68;;;;;;;;;;6183947;23;20196;-91
2021/04/24 16:53:56;;;;;;;8.43;4.13;;;;;;;;;;6185068;23;20168;-91
2021/04/24 16:57:01;;;;;;;7.93;4.35;;;;;;;;;;6181064;23;20235;-92
2021/04/24 17:00:07;;;;;;;9.82;4.28;;;;;;;;;;6180385;23;20168;-91
2021/04/24 17:03:12;;;;;;;17.25;4.47;;;;;;;;;;6182071;23;20396;-92
2021/04/24 17:06:17;;;;;;;10.13;4.60;;;;;;;;;;6181583;23;20171;-91
2021/04/24 17:09:23;;;;;;;9.43;4.10;;;;;;;;;;6181536;23;20182;-92
2021/04/24 17:12:27;;;;;;;10.13;4.38;;;;;;;;;;6181925;23;20182;-92
2021/04/24 17:15:31;;;;;;;10.13;4.13;;;;;;;;;;6180403;23;20215;-93
2021/04/24 17:18:37;;;;;;;9.80;4.82;;;;;;;;;;6180837;23;20176;-92
2021/04/24 17:21:42;;;;;;;12.60;4.10;;;;;;;;;;6169493;23;20208;-91
2021/04/24 17:24:47;;;;;;;11.50;4.85;;;;;;;;;;6169128;23;20172;-90
2021/04/24 17:27:52;;;;;;;10.23;4.40;;;;;;;;;;6169256;23;20232;-92
2021/04/24 17:30:57;;;;;;;10.70;4.45;;;;;;;;;;6167837;23;20232;-90
2021/04/24 17:34:01;;;;;;;15.55;6.30;;;;;;;;;;6168458;23;20188;-91
2021/04/24 17:37:09;;;;;;;14.38;5.00;;;;;;;;;;6170368;23;20176;-91
2021/04/24 17:43:49;;;;;;;10.18;4.70;;;;;;;;;;6175027;23;20192;-91
2021/04/24 17:47:04;;;;;;;15.93;5.13;;;;;;;;;;6175861;23;20176;-91
2021/04/24 17:50:13;;;;;;;9.90;4.72;;;;;;;;;;6174349;23;20200;-92
2021/04/24 17:53:17;;;;;;;14.07;5.35;;;;;;;;;;6175170;23;20168;-91
2021/04/24 17:56:22;;;;;;;9.93;4.85;;;;;;;;;;6176113;23;20247;-92
2021/04/24 17:59:37;;;;;;;10.07;4.78;;;;;;;;;;6175426;23;20195;-92
2021/04/24 18:02:42;;;;;;;18.25;5.25;;;;;;;;;;6175356;23;20197;-91
2021/04/24 18:05:47;;;;;;;7.75;4.13;;;;;;;;;;6174335;23;20189;-90
2021/04/24 18:08:54;;;;;;;13.32;4.78;;;;;;;;;;6167316;23;20172;-91
2021/04/24 18:11:58;;;;;;;14.60;6.13;;;;;;;;;;6168303;23;20188;-92
2021/04/24 18:15:05;;;;;;;16.10;6.05;;;;;;;;;;6165767;23;20197;-90
2021/04/24 18:18:09;;;;;;;15.13;7.00;;;;;;;;;;6165841;23;20223;-92
2021/04/24 18:21:14;;;;;;;12.50;5.53;;;;;;;;;;6176771;23;20281;-90